Heathfield, United Kingdom
Current Conditions -  °F | °C
As of 6:20 AM on Tuesday 21 Oct 2014 (Local Time) from EGKK Reporting Station
Light Rain Light Rain  
Wind Chill: 55°   Ceiling: 800
Heat Index: 55°   Visibility: 5mi
Dew Point: 54°   Wind: 13mph
Humidity: 94%   Direction: 230°SW
Pressure: 29.65"   Gusts: NA
Location:  50.97°N, 0.25°E
Report Text: EGKK 210520Z 23011KT 8000 -RA BKN008 OVC012 13/12 Q1004
Loading
Personal Weather Stations






























Interactive Weather Map
Tropical Storm Tracking
New forecast layout! Learn more

10-Day Weather Forecast

Advertisements
Track Severe Weather on mobile